Time;durP1;ratioP1;P1;durP2;ratioP2;P2;SDS_P1;SDS_P2;PMS_P1;PMS_P2;Temp;Humidity;BMP_temperature;BMP_pressure;BME280_temperature;BME280_humidity;BME280_pressure;Samples;Min_cycle;Max_cycle;Signal;HPM_P1;HPM_P2
2022/07/22 00:01:04;;;;;;;10.53;9.43;;;17.40;99.90;;;;;;5051181;28;20193;-34
2022/07/22 00:03:30;;;;;;;9.83;8.93;;;17.40;99.90;;;;;;5051544;28;20633;-34
2022/07/22 00:05:56;;;;;;;9.90;8.90;;;17.40;99.90;;;;;;5051108;28;20205;-33
2022/07/22 00:08:21;;;;;;;8.30;7.30;;;17.30;99.90;;;;;;5050170;28;20567;-34
2022/07/22 00:10:47;;;;;;;11.13;8.57;;;17.20;99.90;;;;;;5051145;28;20193;-34
2022/07/22 00:13:13;;;;;;;8.33;7.50;;;17.20;99.90;;;;;;5059145;28;20193;-34
2022/07/22 00:15:39;;;;;;;10.50;9.50;;;17.20;99.90;;;;;;5042018;28;20214;-34
2022/07/22 00:18:05;;;;;;;10.00;8.37;;;17.20;99.90;;;;;;5030360;28;20433;-34
2022/07/22 00:20:30;;;;;;;9.30;8.40;;;17.20;99.90;;;;;;5030447;28;20183;-34
2022/07/22 00:22:56;;;;;;;9.67;8.67;;;17.20;99.90;;;;;;5043439;28;21314;-34
2022/07/22 00:25:22;;;;;;;9.80;8.83;;;17.20;99.90;;;;;;5050915;28;20572;-34
2022/07/22 00:27:48;;;;;;;9.73;8.70;;;17.20;99.90;;;;;;5050135;28;20197;-34
2022/07/22 00:30:13;;;;;;;10.10;9.10;;;17.30;99.90;;;;;;5050747;28;20182;-34
2022/07/22 00:32:39;;;;;;;9.00;8.17;;;17.20;99.90;;;;;;5050716;28;20216;-34
2022/07/22 00:35:05;;;;;;;8.13;7.33;;;17.30;99.90;;;;;;5050863;28;20276;-34
2022/07/22 00:37:31;;;;;;;8.40;7.70;;;17.30;99.90;;;;;;5050013;28;20189;-34
2022/07/22 00:39:57;;;;;;;8.53;7.73;;;17.20;99.90;;;;;;5050828;28;20523;-34
2022/07/22 00:42:22;;;;;;;8.47;7.67;;;17.20;99.90;;;;;;5050638;28;20579;-34
2022/07/22 00:44:48;;;;;;;8.57;7.80;;;17.10;99.90;;;;;;5050310;28;20220;-34
2022/07/22 00:47:14;;;;;;;7.93;7.17;;;17.00;99.90;;;;;;5049851;28;20280;-34
2022/07/22 00:49:40;;;;;;;7.80;7.10;;;17.00;99.90;;;;;;5050618;28;20194;-34
2022/07/22 00:52:06;;;;;;;7.97;7.23;;;17.10;99.90;;;;;;5050492;28;20801;-34
2022/07/22 00:54:32;;;;;;;6.67;6.07;;;17.00;99.90;;;;;;5050489;28;20198;-34
2022/07/22 00:56:58;;;;;;;7.80;7.00;;;17.00;99.90;;;;;;5048486;28;20439;-34
2022/07/22 00:59:25;;;;;;;8.50;6.97;;;17.00;99.90;;;;;;5050209;28;20531;-34
2022/07/22 01:01:51;;;;;;;7.80;6.67;;;17.10;99.90;;;;;;5050306;28;20481;-34
2022/07/22 01:04:17;;;;;;;8.23;7.43;;;17.00;99.90;;;;;;5050109;28;20475;-34
2022/07/22 01:06:44;;;;;;;6.60;5.90;;;17.10;99.90;;;;;;5049661;28;20483;-34
2022/07/22 01:09:11;;;;;;;6.57;5.97;;;17.10;99.90;;;;;;5050090;28;20428;-34
2022/07/22 01:11:37;;;;;;;5.60;5.10;;;17.10;99.90;;;;;;5050272;28;20452;-34
2022/07/22 01:14:03;;;;;;;5.93;5.23;;;17.10;99.90;;;;;;5053187;28;20852;-34
2022/07/22 01:16:28;;;;;;;7.50;6.43;;;17.10;99.90;;;;;;5037299;28;20452;-34
2022/07/22 01:18:54;;;;;;;8.17;7.37;;;17.10;99.90;;;;;;5028613;28;20194;-34
2022/07/22 01:21:20;;;;;;;8.27;7.20;;;17.00;99.90;;;;;;5029424;28;20194;-34
2022/07/22 01:23:46;;;;;;;9.57;7.13;;;17.00;99.90;;;;;;5049205;28;20197;-33
2022/07/22 01:26:12;;;;;;;9.60;8.40;;;17.00;99.90;;;;;;5050072;28;21083;-34
2022/07/22 01:28:38;;;;;;;9.80;8.63;;;16.90;99.90;;;;;;5049015;28;20205;-34
2022/07/22 01:31:04;;;;;;;9.30;7.93;;;16.90;99.90;;;;;;5049946;28;20440;-34
2022/07/22 01:33:30;;;;;;;10.83;8.50;;;16.90;99.90;;;;;;5049858;28;20428;-34
2022/07/22 01:35:56;;;;;;;10.80;8.03;;;16.90;99.90;;;;;;5049970;28;20431;-34
2022/07/22 01:38:22;;;;;;;9.43;8.30;;;17.00;99.90;;;;;;5049161;28;20186;-34
2022/07/22 01:40:48;;;;;;;8.80;7.90;;;17.00;99.90;;;;;;5049824;28;20735;-34
2022/07/22 01:43:17;;;;;;;9.63;7.63;;;16.90;99.90;;;;;;5049572;28;20428;-34
2022/07/22 01:45:44;;;;;;;11.10;8.00;;;16.80;99.90;;;;;;5049776;28;20217;-34
2022/07/22 01:48:10;;;;;;;10.33;9.33;;;16.70;99.90;;;;;;5049117;28;20493;-34
2022/07/22 01:50:36;;;;;;;10.27;7.97;;;16.70;99.90;;;;;;5049764;28;20957;-34
2022/07/22 01:53:02;;;;;;;7.33;6.63;;;16.80;99.90;;;;;;5049750;28;20428;-34
2022/07/22 01:55:28;;;;;;;9.60;7.70;;;16.90;99.90;;;;;;5049753;28;20510;-34
2022/07/22 01:57:54;;;;;;;8.67;7.53;;;16.90;99.90;;;;;;5048808;28;20216;-34
2022/07/22 02:00:20;;;;;;;10.63;8.27;;;16.80;99.90;;;;;;5049693;28;20432;-33
2022/07/22 02:02:46;;;;;;;9.80;8.33;;;16.90;99.90;;;;;;5049723;28;20204;-34
2022/07/22 02:05:11;;;;;;;8.07;7.27;;;16.80;99.90;;;;;;5049404;28;20468;-34
2022/07/22 02:07:37;;;;;;;9.47;7.27;;;16.80;99.90;;;;;;5048801;28;20843;-34
2022/07/22 02:10:05;;;;;;;7.70;6.90;;;16.70;99.90;;;;;;5049558;28;20205;-34
2022/07/22 02:12:30;;;;;;;10.73;7.20;;;16.80;99.90;;;;;;5051457;28;20190;-34
2022/07/22 02:14:56;;;;;;;8.90;7.30;;;16.80;99.90;;;;;;5052632;28;20478;-34
2022/07/22 02:17:22;;;;;;;9.03;7.33;;;16.80;99.90;;;;;;5029625;28;20187;-34
2022/07/22 02:19:48;;;;;;;9.00;8.10;;;16.70;99.90;;;;;;5028600;28;20202;-34
2022/07/22 02:22:13;;;;;;;11.30;8.97;;;16.60;99.90;;;;;;5035934;28;20194;-34
2022/07/22 02:24:39;;;;;;;9.67;8.20;;;16.50;99.90;;;;;;5049414;28;20997;-34
2022/07/22 02:27:05;;;;;;;9.10;8.20;;;16.50;99.90;;;;;;5048450;28;20205;-34
2022/07/22 02:29:32;;;;;;;8.93;7.53;;;16.60;99.90;;;;;;5049438;28;20192;-34
2022/07/22 02:31:58;;;;;;;10.43;6.50;;;16.60;99.90;;;;;;5050005;28;20186;-34
2022/07/22 02:34:24;;;;;;;8.70;7.77;;;16.60;99.90;;;;;;5053142;28;20570;-34
2022/07/22 02:36:50;;;;;;;10.43;7.50;;;16.70;99.90;;;;;;5052371;28;20432;-34
2022/07/22 02:39:16;;;;;;;6.97;6.33;;;16.60;99.90;;;;;;5051606;28;20843;-33
2022/07/22 02:41:41;;;;;;;8.30;7.50;;;16.60;99.90;;;;;;5052790;28;20775;-34
2022/07/22 02:44:07;;;;;;;8.87;7.00;;;16.70;99.90;;;;;;5052831;28;20304;-34
2022/07/22 02:46:33;;;;;;;8.23;6.40;;;16.80;99.90;;;;;;5052292;28;20252;-34
2022/07/22 02:48:58;;;;;;;12.03;7.63;;;16.80;99.90;;;;;;5052442;28;20198;-34
2022/07/22 02:51:24;;;;;;;7.73;6.40;;;16.80;99.90;;;;;;5052733;28;20545;-34
2022/07/22 02:53:50;;;;;;;7.73;6.70;;;16.80;99.90;;;;;;5052695;28;20663;-34
2022/07/22 02:56:16;;;;;;;9.23;6.97;;;16.80;99.90;;;;;;5052337;28;20958;-34
2022/07/22 02:58:42;;;;;;;8.47;6.93;;;16.80;99.90;;;;;;5051938;28;20201;-34
2022/07/22 03:01:08;;;;;;;13.17;7.73;;;16.80;99.90;;;;;;5052617;28;20473;-34
2022/07/22 03:03:33;;;;;;;10.33;8.80;;;16.70;99.90;;;;;;5052397;28;20474;-34
2022/07/22 03:05:59;;;;;;;10.57;7.93;;;16.80;99.90;;;;;;5052448;28;20221;-34
2022/07/22 03:08:25;;;;;;;14.57;7.73;;;16.70;99.90;;;;;;5051789;28;20903;-34
2022/07/22 03:10:51;;;;;;;9.90;7.03;;;16.70;99.90;;;;;;5051088;28;20190;-34
2022/07/22 03:13:17;;;;;;;8.87;7.10;;;16.70;99.90;;;;;;5060806;28;20432;-34
2022/07/22 03:15:43;;;;;;;9.87;8.60;;;16.70;99.90;;;;;;5043764;28;20432;-34
2022/07/22 03:18:08;;;;;;;13.80;8.60;;;16.70;99.90;;;;;;5031017;28;20705;-34
2022/07/22 03:20:34;;;;;;;11.03;8.33;;;16.70;99.90;;;;;;5032098;28;20241;-34
2022/07/22 03:23:00;;;;;;;9.37;7.57;;;16.70;99.90;;;;;;5044716;28;20193;-34
2022/07/22 03:25:25;;;;;;;12.50;9.43;;;16.70;99.90;;;;;;5051948;28;20213;-34
2022/07/22 03:27:51;;;;;;;19.57;9.93;;;16.60;99.90;;;;;;5051331;28;20904;-34
2022/07/22 03:30:17;;;;;;;12.43;9.50;;;16.60;99.90;;;;;;5052078;28;20556;-34
2022/07/22 03:32:44;;;;;;;9.10;7.17;;;16.60;99.90;;;;;;5051972;28;20210;-34
2022/07/22 03:35:11;;;;;;;7.13;6.43;;;16.60;99.90;;;;;;5051928;28;20479;-34
2022/07/22 03:37:37;;;;;;;7.57;5.93;;;16.60;99.90;;;;;;5051148;28;20440;-34
2022/07/22 03:40:04;;;;;;;7.57;6.37;;;16.60;99.90;;;;;;5051710;28;20429;-34
2022/07/22 03:42:29;;;;;;;11.30;6.30;;;16.60;99.90;;;;;;5051881;28;20213;-34
2022/07/22 03:44:55;;;;;;;6.73;5.93;;;16.60;99.90;;;;;;5050826;28;20506;-34
2022/07/22 03:47:22;;;;;;;8.23;5.57;;;16.60;99.90;;;;;;5051131;28;20224;-34
2022/07/22 03:49:49;;;;;;;7.57;5.80;;;16.50;99.90;;;;;;5051686;28;20193;-34
2022/07/22 03:52:15;;;;;;;5.63;5.03;;;16.60;99.90;;;;;;5051527;28;20424;-34
2022/07/22 03:54:41;;;;;;;8.80;5.70;;;16.50;99.90;;;;;;5051402;28;20436;-34
2022/07/22 03:57:07;;;;;;;8.00;6.17;;;16.50;99.90;;;;;;5051086;28;20523;-34
2022/07/22 03:59:33;;;;;;;6.73;5.30;;;16.50;99.90;;;;;;5051385;28;20872;-34
2022/07/22 04:01:59;;;;;;;7.20;5.00;;;16.50;99.90;;;;;;5051655;28;20285;-34
2022/07/22 04:04:25;;;;;;;5.53;4.80;;;16.50;99.90;;;;;;5051161;28;20614;-34
2022/07/22 04:06:53;;;;;;;6.90;4.50;;;16.50;99.90;;;;;;5050471;28;20221;-34
2022/07/22 04:09:20;;;;;;;5.80;4.73;;;16.50;99.90;;;;;;5051392;28;20224;-34
2022/07/22 04:11:46;;;;;;;6.03;4.50;;;16.50;99.90;;;;;;5051362;28;20432;-34
2022/07/22 04:14:12;;;;;;;7.10;4.47;;;16.50;99.90;;;;;;5055126;28;20429;-34
2022/07/22 04:16:38;;;;;;;7.90;5.40;;;16.50;99.90;;;;;;5037105;28;20483;-33
2022/07/22 04:19:04;;;;;;;5.90;4.43;;;16.50;99.90;;;;;;5030043;28;20425;-34
2022/07/22 04:21:30;;;;;;;6.77;4.90;;;16.50;99.90;;;;;;5031215;28;20425;-34
2022/07/22 04:23:56;;;;;;;9.13;4.87;;;16.50;99.90;;;;;;5051020;28;20439;-34
2022/07/22 04:26:22;;;;;;;7.43;4.83;;;16.40;99.90;;;;;;5050835;28;20261;-34
2022/07/22 04:28:48;;;;;;;6.20;4.40;;;16.40;99.90;;;;;;5050473;28;20420;-34
2022/07/22 04:31:13;;;;;;;7.37;5.43;;;16.40;99.90;;;;;;5050775;28;20424;-34
2022/07/22 04:33:39;;;;;;;5.63;4.67;;;16.40;99.90;;;;;;5050886;28;20424;-34
2022/07/22 04:36:05;;;;;;;8.37;4.70;;;16.30;99.90;;;;;;5050618;28;20196;-34
2022/07/22 04:38:31;;;;;;;6.87;4.70;;;16.30;99.90;;;;;;5050263;28;20436;-34
2022/07/22 04:40:57;;;;;;;11.20;5.20;;;16.30;99.90;;;;;;5050642;28;20503;-34
2022/07/22 04:43:23;;;;;;;6.60;4.20;;;16.30;99.90;;;;;;5050615;28;20185;-34
2022/07/22 04:45:49;;;;;;;8.37;5.10;;;16.30;99.90;;;;;;5047073;28;20533;-34
2022/07/22 04:48:16;;;;;;;7.47;4.40;;;16.30;99.90;;;;;;5040539;28;20183;-34
2022/07/22 04:50:42;;;;;;;6.53;4.50;;;16.40;99.90;;;;;;5048049;28;20428;-34
2022/07/22 04:53:07;;;;;;;7.67;5.00;;;16.40;99.90;;;;;;5030596;28;20417;-33
2022/07/22 04:55:33;;;;;;;7.03;4.80;;;16.40;99.90;;;;;;5036787;28;20247;-33
2022/07/22 04:57:59;;;;;;;6.10;4.67;;;16.50;99.90;;;;;;5043461;28;20626;-33
2022/07/22 05:00:24;;;;;;;8.10;4.00;;;16.50;99.90;;;;;;5037123;28;20198;-33
2022/07/22 05:02:51;;;;;;;8.47;4.90;;;16.50;99.90;;;;;;5037219;28;20198;-33
2022/07/22 05:05:17;;;;;;;6.90;4.20;;;16.50;99.90;;;;;;5050094;28;20471;-33
2022/07/22 05:07:42;;;;;;;6.17;4.20;;;16.50;99.90;;;;;;5049737;28;20193;-33
2022/07/22 05:10:09;;;;;;;6.73;4.90;;;16.50;99.90;;;;;;5050338;28;20548;-33
2022/07/22 05:12:35;;;;;;;6.83;4.70;;;16.50;99.90;;;;;;5038194;28;20198;-33
2022/07/22 05:15:01;;;;;;;6.90;4.57;;;16.50;99.90;;;;;;5045546;28;20460;-34
2022/07/22 05:17:26;;;;;;;8.73;4.87;;;16.50;99.90;;;;;;5041438;28;20962;-33
2022/07/22 05:19:53;;;;;;;8.33;4.93;;;16.50;99.90;;;;;;5028531;28;20194;-34
2022/07/22 05:22:18;;;;;;;9.50;4.77;;;16.50;99.90;;;;;;5035726;28;20193;-33
2022/07/22 05:24:44;;;;;;;8.00;5.00;;;16.50;99.90;;;;;;5050043;28;20468;-34
2022/07/22 05:27:10;;;;;;;5.73;4.63;;;16.50;99.90;;;;;;5049325;28;20641;-34
2022/07/22 05:29:35;;;;;;;7.53;5.00;;;16.60;99.90;;;;;;5049864;28;20202;-34
2022/07/22 05:32:01;;;;;;;7.30;4.83;;;16.60;99.90;;;;;;5049875;28;20186;-34
2022/07/22 05:34:27;;;;;;;5.33;4.80;;;16.60;99.90;;;;;;5049721;28;20197;-34
2022/07/22 05:36:53;;;;;;;6.20;5.10;;;16.70;99.90;;;;;;5049314;28;20194;-34
2022/07/22 05:39:18;;;;;;;7.17;5.10;;;16.80;99.90;;;;;;5050044;28;20189;-34
2022/07/22 05:41:44;;;;;;;7.13;5.00;;;16.80;99.90;;;;;;5049834;28;20189;-34
2022/07/22 05:44:10;;;;;;;7.00;5.13;;;16.80;99.90;;;;;;5049674;28;20731;-34
2022/07/22 05:46:36;;;;;;;9.20;5.63;;;16.90;99.90;;;;;;5036930;28;20640;-34
2022/07/22 05:49:02;;;;;;;6.70;5.10;;;16.90;99.90;;;;;;5029454;28;20194;-34
2022/07/22 05:51:28;;;;;;;6.60;5.33;;;16.90;99.90;;;;;;5029945;28;20193;-34
2022/07/22 05:53:53;;;;;;;8.13;4.90;;;16.90;99.90;;;;;;5029432;28;20426;-34
2022/07/22 05:56:19;;;;;;;7.97;5.30;;;16.90;99.90;;;;;;5038567;28;20190;-34
2022/07/22 05:58:45;;;;;;;9.60;4.60;;;16.90;99.90;;;;;;5046469;28;20190;-34
2022/07/22 06:01:11;;;;;;;7.97;5.40;;;17.00;99.90;;;;;;5030102;28;20688;-34
2022/07/22 06:03:38;;;;;;;6.33;4.90;;;17.00;99.90;;;;;;5029324;28;20198;-34
2022/07/22 06:06:08;;;;;;;8.33;4.20;;;17.00;99.90;;;;;;5029655;28;20469;-34
2022/07/22 06:08:34;;;;;;;6.20;4.10;;;17.00;99.90;;;;;;5032546;28;20421;-34
2022/07/22 06:11:00;;;;;;;5.67;4.30;;;17.00;99.90;;;;;;5044977;28;20479;-34
2022/07/22 06:13:26;;;;;;;4.43;3.80;;;16.90;99.90;;;;;;5052886;28;20958;-33
2022/07/22 06:15:52;;;;;;;7.60;4.50;;;16.90;99.90;;;;;;5041162;28;20364;-34
2022/07/22 06:18:17;;;;;;;7.80;4.57;;;16.90;99.90;;;;;;5030844;28;20478;-34
2022/07/22 06:20:43;;;;;;;6.50;3.30;;;16.80;99.90;;;;;;5033162;28;20457;-34
2022/07/22 06:23:09;;;;;;;6.83;3.10;;;16.80;99.90;;;;;;5046735;28;20653;-34
2022/07/22 06:25:35;;;;;;;5.53;3.50;;;16.80;99.90;;;;;;5053220;28;20464;-34
2022/07/22 06:28:01;;;;;;;4.77;3.33;;;16.80;99.90;;;;;;5051032;28;20190;-34
2022/07/22 06:30:27;;;;;;;6.10;3.23;;;16.80;99.90;;;;;;5033207;28;20423;-33
2022/07/22 06:32:53;;;;;;;6.40;3.57;;;16.70;99.90;;;;;;5032897;28;20431;-33
2022/07/22 06:35:19;;;;;;;4.20;3.47;;;16.80;99.90;;;;;;5033295;28;20561;-34
2022/07/22 06:37:44;;;;;;;5.97;2.87;;;16.80;99.90;;;;;;5032569;28;20436;-33
2022/07/22 06:40:11;;;;;;;3.60;2.43;;;16.90;99.90;;;;;;5038212;28;20186;-34
2022/07/22 06:42:37;;;;;;;9.60;3.23;;;16.90;99.90;;;;;;5032904;28;20300;-34
2022/07/22 06:45:04;;;;;;;5.87;3.10;;;16.90;99.90;;;;;;5040706;28;20544;-34
2022/07/22 06:47:31;;;;;;;4.90;3.00;;;16.90;99.90;;;;;;5039890;28;20444;-33
2022/07/22 06:49:57;;;;;;;5.27;2.67;;;17.00;99.90;;;;;;5035550;28;20425;-33
2022/07/22 06:52:23;;;;;;;4.80;2.70;;;17.00;99.90;;;;;;5032811;28;20991;-34
2022/07/22 06:54:49;;;;;;;4.27;2.87;;;17.00;99.90;;;;;;5032886;28;20926;-34
2022/07/22 06:57:15;;;;;;;6.70;3.27;;;16.90;99.90;;;;;;5032170;28;20202;-33
2022/07/22 06:59:41;;;;;;;5.00;3.10;;;16.90;99.90;;;;;;5040981;28;20427;-34
2022/07/22 07:02:06;;;;;;;5.77;3.10;;;17.00;99.90;;;;;;5040344;28;20950;-34
2022/07/22 07:04:32;;;;;;;6.00;3.47;;;17.00;99.90;;;;;;5041936;28;20214;-33
2022/07/22 07:06:58;;;;;;;5.10;3.03;;;17.00;99.90;;;;;;5041565;28;20821;-33
2022/07/22 07:09:24;;;;;;;5.30;3.50;;;17.00;99.90;;;;;;5040096;28;20208;-34
2022/07/22 07:11:49;;;;;;;5.47;3.53;;;17.00;99.90;;;;;;5039845;28;20183;-34
2022/07/22 07:14:15;;;;;;;4.33;3.20;;;17.00;99.90;;;;;;5042634;28;20202;-33
2022/07/22 07:16:41;;;;;;;3.90;3.40;;;17.00;99.90;;;;;;5036131;28;20194;-33
2022/07/22 07:19:06;;;;;;;6.17;4.00;;;17.10;99.90;;;;;;5047369;28;20229;-33
2022/07/22 07:21:32;;;;;;;6.87;4.10;;;17.10;99.90;;;;;;5038242;28;20221;-34
2022/07/22 07:23:58;;;;;;;5.70;4.30;;;17.10;99.90;;;;;;5032346;28;20198;-33
2022/07/22 07:26:24;;;;;;;5.20;4.70;;;17.10;99.90;;;;;;5032208;28;20195;-33
2022/07/22 07:28:49;;;;;;;6.20;4.50;;;17.10;99.90;;;;;;5031580;28;20222;-34
2022/07/22 07:31:17;;;;;;;6.17;4.50;;;17.20;99.90;;;;;;5031962;28;20194;-34
2022/07/22 07:33:42;;;;;;;5.30;4.57;;;17.30;99.90;;;;;;5046684;28;20210;-34
2022/07/22 07:36:08;;;;;;;6.00;4.77;;;17.30;99.90;;;;;;5038397;28;20452;-34
2022/07/22 07:38:34;;;;;;;7.80;5.93;;;17.30;99.90;;;;;;5033974;28;20540;-34
2022/07/22 07:40:59;;;;;;;8.20;5.50;;;17.30;99.90;;;;;;5035331;28;20186;-34
2022/07/22 07:43:26;;;;;;;8.63;6.63;;;17.40;99.90;;;;;;5031931;28;20226;-33
2022/07/22 07:45:51;;;;;;;7.30;6.27;;;17.50;99.90;;;;;;5031561;28;20690;-33
2022/07/22 07:48:17;;;;;;;6.40;5.80;;;17.50;99.90;;;;;;5031170;28;20468;-33
2022/07/22 07:50:43;;;;;;;7.53;5.13;;;17.70;99.90;;;;;;5031850;28;20203;-34
2022/07/22 07:53:12;;;;;;;6.73;4.90;;;17.70;99.90;;;;;;5032985;28;20429;-33
2022/07/22 07:55:39;;;;;;;7.83;7.10;;;17.70;99.90;;;;;;5037397;28;20228;-33
2022/07/22 07:58:05;;;;;;;8.93;8.03;;;17.70;99.90;;;;;;5038006;28;20428;-34
2022/07/22 08:00:33;;;;;;;7.87;6.33;;;17.70;99.90;;;;;;5051467;28;20432;-34
2022/07/22 08:02:58;;;;;;;8.80;7.37;;;17.70;99.90;;;;;;5051414;28;20776;-34
2022/07/22 08:05:24;;;;;;;8.50;6.57;;;17.50;99.90;;;;;;5051226;28;20479;-34
2022/07/22 08:07:50;;;;;;;8.10;7.30;;;17.50;99.90;;;;;;5050674;28;20201;-34
2022/07/22 08:10:17;;;;;;;7.77;6.97;;;17.60;99.90;;;;;;5051464;28;21116;-34
2022/07/22 08:12:43;;;;;;;9.03;7.40;;;17.60;99.90;;;;;;5053418;28;20476;-34
2022/07/22 08:15:10;;;;;;;11.57;8.80;;;17.60;99.90;;;;;;5053151;28;20440;-34
2022/07/22 08:17:36;;;;;;;10.20;8.83;;;17.60;99.90;;;;;;5030628;28;20205;-33
2022/07/22 08:20:04;;;;;;;13.10;11.90;;;17.70;99.90;;;;;;5030071;28;20464;-34
2022/07/22 08:22:29;;;;;;;12.13;10.90;;;17.70;99.90;;;;;;5039749;28;20428;-33
2022/07/22 08:24:55;;;;;;;12.37;11.17;;;17.80;99.90;;;;;;5050962;28;20784;-34
2022/07/22 08:27:21;;;;;;;13.13;11.80;;;17.80;99.90;;;;;;5050198;28;20197;-34
2022/07/22 08:29:46;;;;;;;11.87;10.53;;;17.90;99.90;;;;;;5050765;28;20637;-34
2022/07/22 08:32:12;;;;;;;12.20;11.00;;;17.90;99.90;;;;;;5038800;28;20194;-34
2022/07/22 08:34:38;;;;;;;14.47;11.70;;;17.90;99.90;;;;;;5045595;28;20812;-34
2022/07/22 08:37:04;;;;;;;13.63;12.03;;;17.90;99.90;;;;;;5050359;28;20189;-34
2022/07/22 08:39:29;;;;;;;11.57;10.47;;;17.90;99.90;;;;;;5050638;28;20193;-34
2022/07/22 08:41:57;;;;;;;10.17;9.00;;;17.90;99.90;;;;;;5050576;28;20516;-34
2022/07/22 08:44:23;;;;;;;12.40;11.00;;;18.00;99.90;;;;;;5050498;28;20221;-33
2022/07/22 08:46:48;;;;;;;12.20;10.80;;;17.90;99.90;;;;;;5050051;28;20561;-34
2022/07/22 08:49:16;;;;;;;12.67;11.47;;;18.00;99.90;;;;;;5050595;28;20792;-34
2022/07/22 08:51:41;;;;;;;13.93;12.57;;;18.10;99.90;;;;;;5050630;28;20189;-34
2022/07/22 08:54:08;;;;;;;9.60;8.70;;;18.10;99.90;;;;;;5050398;28;20779;-34
2022/07/22 08:56:34;;;;;;;10.20;9.20;;;18.10;99.90;;;;;;5049829;28;20416;-34
2022/07/22 08:59:00;;;;;;;10.07;9.13;;;18.20;99.90;;;;;;5041386;28;20543;-34
2022/07/22 09:01:25;;;;;;;10.57;9.57;;;18.10;99.90;;;;;;5029384;28;20193;-33
2022/07/22 09:03:57;;;;;;;9.73;8.80;;;18.10;99.90;;;;;;5044433;28;20763;-34
2022/07/22 09:06:25;;;;;;;9.73;8.83;;;18.20;99.90;;;;;;5050212;28;20695;-34
2022/07/22 09:09:04;;;;;;;10.37;9.37;;;18.20;99.90;;;;;;5039075;28;21005;-34
2022/07/22 09:11:31;;;;;;;12.47;10.37;;;18.10;99.90;;;;;;5041000;28;20424;-34
2022/07/22 09:14:00;;;;;;;12.63;11.33;;;18.20;99.90;;;;;;5056155;28;20433;-34
2022/07/22 09:16:47;;;;;;;12.53;11.33;;;18.20;99.90;;;;;;5039140;28;20464;-34
2022/07/22 09:19:14;;;;;;;12.07;10.97;;;18.10;99.90;;;;;;5028679;28;20966;-34
2022/07/22 09:21:43;;;;;;;13.10;11.60;;;18.20;99.90;;;;;;5031679;28;20420;-33
2022/07/22 09:24:29;;;;;;;12.03;10.80;;;18.30;99.90;;;;;;5049896;28;20431;-34
2022/07/22 09:26:55;;;;;;;11.10;10.00;;;18.30;99.90;;;;;;5049446;28;20424;-34
2022/07/22 09:29:22;;;;;;;14.13;12.83;;;18.30;99.90;;;;;;5040817;28;20824;-33
2022/07/22 09:31:52;;;;;;;13.50;12.13;;;18.30;99.90;;;;;;5040538;28;20416;-34
2022/07/22 09:34:34;;;;;;;10.77;9.70;;;18.30;99.90;;;;;;5037867;28;20417;-34
2022/07/22 09:37:01;;;;;;;10.20;9.17;;;18.40;99.90;;;;;;5029579;28;20798;-34
2022/07/22 09:39:29;;;;;;;9.47;8.50;;;18.50;99.90;;;;;;5029974;28;20421;-34
2022/07/22 09:42:03;;;;;;;9.50;8.60;;;18.50;99.90;;;;;;5029295;28;20436;-34
2022/07/22 09:44:29;;;;;;;11.00;9.90;;;18.60;99.90;;;;;;5037091;28;20478;-34
2022/07/22 09:46:55;;;;;;;10.63;9.63;;;18.60;99.90;;;;;;5032076;28;20425;-34
2022/07/22 09:49:37;;;;;;;11.40;10.30;;;18.60;99.90;;;;;;5040855;28;20193;-34
2022/07/22 09:52:03;;;;;;;10.97;9.87;;;18.60;99.90;;;;;;5033492;28;20182;-34
2022/07/22 09:54:30;;;;;;;10.97;9.87;;;18.60;99.90;;;;;;5044491;28;20429;-34
2022/07/22 09:56:56;;;;;;;11.70;10.50;;;18.70;99.90;;;;;;5028926;28;20441;-34
2022/07/22 09:59:22;;;;;;;12.70;10.90;;;18.70;99.90;;;;;;5029759;28;20435;-34
2022/07/22 10:01:50;;;;;;;12.93;11.10;;;18.70;99.90;;;;;;5029795;28;20428;-33
2022/07/22 10:04:19;;;;;;;14.63;12.90;;;18.60;99.90;;;;;;5029624;28;20210;-34
2022/07/22 10:06:47;;;;;;;15.17;13.50;;;18.60;99.90;;;;;;5028944;28;21003;-34
2022/07/22 10:09:16;;;;;;;13.90;12.27;;;18.60;99.90;;;;;;5029679;28;20432;-33
2022/07/22 10:11:46;;;;;;;11.43;10.20;;;18.60;99.90;;;;;;5029558;28;20491;-33
2022/07/22 10:14:14;;;;;;;13.03;10.67;;;18.50;99.90;;;;;;5051334;28;20818;-34
2022/07/22 10:16:40;;;;;;;12.37;10.93;;;18.40;99.90;;;;;;5035588;28;20450;-33
2022/07/22 10:19:06;;;;;;;12.80;11.40;;;18.40;99.90;;;;;;5034576;28;20482;-34
2022/07/22 10:21:34;;;;;;;11.77;10.57;;;18.50;99.90;;;;;;5035401;28;20465;-33
2022/07/22 10:24:12;;;;;;;12.70;11.40;;;18.60;99.90;;;;;;5029393;28;20892;-34
2022/07/22 10:26:48;;;;;;;15.93;10.40;;;18.60;99.90;;;;;;5029083;28;20424;-34
2022/07/22 10:29:46;;;;;;;13.73;11.10;;;18.70;99.90;;;;;;5029535;28;20432;-34
2022/07/22 10:32:15;;;;;;;13.70;10.97;;;18.70;99.90;;;;;;5029481;28;20462;-34
2022/07/22 10:34:41;;;;;;;12.10;10.80;;;18.70;99.90;;;;;;5029311;28;20511;-34
2022/07/22 10:37:34;;;;;;;11.10;10.00;;;18.70;99.90;;;;;;5028962;28;20425;-34
2022/07/22 10:40:29;;;;;;;12.43;10.57;;;18.80;99.90;;;;;;5029445;28;20421;-33
2022/07/22 10:43:00;;;;;;;15.43;11.63;;;18.80;99.90;;;;;;5027908;28;20457;-34
2022/07/22 10:45:27;;;;;;;11.37;10.17;;;18.80;99.90;;;;;;5029424;28;20461;-34
2022/07/22 10:48:01;;;;;;;13.10;11.73;;;18.80;99.90;;;;;;5028685;28;20451;-34
2022/07/22 10:50:35;;;;;;;13.13;11.50;;;18.90;99.90;;;;;;5029505;28;20425;-33
2022/07/22 10:53:05;;;;;;;13.20;11.30;;;18.80;99.90;;;;;;5030138;28;20436;-34
2022/07/22 10:55:31;;;;;;;13.23;11.83;;;18.80;99.90;;;;;;5032835;28;20428;-33
2022/07/22 10:57:57;;;;;;;14.80;11.53;;;18.90;99.90;;;;;;5031906;28;20474;-34
2022/07/22 11:00:23;;;;;;;13.10;10.93;;;19.00;99.90;;;;;;5031599;28;20528;-34
2022/07/22 11:02:49;;;;;;;13.60;12.07;;;19.10;99.90;;;;;;5032602;28;20429;-34
2022/07/22 11:05:24;;;;;;;12.30;11.13;;;19.10;99.90;;;;;;5032699;28;20880;-34
2022/07/22 11:07:49;;;;;;;12.80;10.80;;;19.20;99.90;;;;;;5031610;28;20227;-34
2022/07/22 11:10:19;;;;;;;14.07;11.90;;;19.20;99.90;;;;;;5032790;28;20835;-34
2022/07/22 11:12:50;;;;;;;13.80;11.40;;;19.20;99.90;;;;;;5040794;28;20796;-34
2022/07/22 11:15:15;;;;;;;11.87;10.70;;;19.20;99.90;;;;;;5053054;28;20515;-34
2022/07/22 11:17:41;;;;;;;14.23;12.23;;;19.20;99.90;;;;;;5031685;28;20551;-34
2022/07/22 11:20:10;;;;;;;18.23;12.90;;;19.10;99.90;;;;;;5029257;28;20457;-34
2022/07/22 11:22:38;;;;;;;14.50;10.50;;;19.10;99.90;;;;;;5041394;28;21123;-33
2022/07/22 11:25:06;;;;;;;12.93;11.57;;;19.10;99.90;;;;;;5051886;28;20550;-34
2022/07/22 11:27:32;;;;;;;12.67;11.37;;;19.10;99.90;;;;;;5051774;28;20425;-34
2022/07/22 11:29:58;;;;;;;14.10;11.63;;;19.20;99.90;;;;;;5052022;28;20412;-34
2022/07/22 11:32:28;;;;;;;13.20;11.07;;;19.20;99.90;;;;;;5052184;28;20429;-34
2022/07/22 11:34:53;;;;;;;12.57;11.03;;;19.20;99.90;;;;;;5051662;28;20611;-34
2022/07/22 11:37:24;;;;;;;15.30;12.07;;;19.20;99.90;;;;;;5051618;28;20428;-33
2022/07/22 11:39:52;;;;;;;16.60;12.93;;;19.30;99.90;;;;;;5051972;28;20185;-34
2022/07/22 11:42:18;;;;;;;12.10;10.90;;;19.20;99.90;;;;;;5052118;28;20428;-34
2022/07/22 11:44:44;;;;;;;13.33;11.63;;;19.30;99.90;;;;;;5051552;28;20977;-34
2022/07/22 11:47:11;;;;;;;11.30;10.20;;;19.40;99.90;;;;;;5051313;28;20432;-34
2022/07/22 11:49:38;;;;;;;13.53;11.93;;;19.40;99.90;;;;;;5051383;28;20189;-34
2022/07/22 11:52:11;;;;;;;14.70;12.47;;;19.50;99.90;;;;;;5051782;28;20452;-34
2022/07/22 11:54:39;;;;;;;13.90;12.40;;;19.50;99.90;;;;;;5051554;28;20467;-34
2022/07/22 11:57:05;;;;;;;14.70;12.83;;;19.50;99.90;;;;;;5051104;28;20432;-34
2022/07/22 11:59:33;;;;;;;14.23;12.20;;;19.50;99.90;;;;;;5051427;28;20458;-34
2022/07/22 12:01:59;;;;;;;16.20;12.97;;;19.60;99.90;;;;;;5051380;28;20772;-34
2022/07/22 12:04:26;;;;;;;17.50;13.20;;;19.70;99.90;;;;;;5050526;28;20463;-34
2022/07/22 12:06:56;;;;;;;19.27;14.77;;;19.80;99.90;;;;;;5050698;28;20472;-34
2022/07/22 12:09:28;;;;;;;16.10;13.40;;;19.90;99.90;;;;;;5051256;28;20961;-34
2022/07/22 12:11:57;;;;;;;16.00;12.23;;;20.00;99.90;;;;;;5051456;28;20501;-34
2022/07/22 12:14:29;;;;;;;14.90;13.30;;;20.10;99.90;;;;;;5057280;28;20440;-34
2022/07/22 12:16:55;;;;;;;15.03;13.17;;;20.20;99.90;;;;;;5042339;28;20455;-34
2022/07/22 12:19:21;;;;;;;17.67;14.80;;;20.40;99.90;;;;;;5039213;28;20452;-34
2022/07/22 12:21:53;;;;;;;18.00;15.07;;;20.40;99.90;;;;;;5043297;28;20198;-34
2022/07/22 12:24:31;;;;;;;17.20;14.23;;;20.30;99.90;;;;;;5031041;28;21052;-33
2022/07/22 12:27:00;;;;;;;17.57;13.90;;;20.30;99.90;;;;;;5030102;28;20450;-34
2022/07/22 12:29:38;;;;;;;16.73;13.50;;;20.30;99.90;;;;;;5029580;28;21162;-34
2022/07/22 12:32:09;;;;;;;17.50;13.37;;;20.30;99.90;;;;;;5030864;28;20436;-34
2022/07/22 12:34:47;;;;;;;17.47;14.10;;;20.40;99.90;;;;;;5040720;28;20431;-34
2022/07/22 12:37:23;;;;;;;17.17;14.83;;;20.40;99.90;;;;;;5028626;28;20455;-34
2022/07/22 12:40:04;;;;;;;17.30;12.93;;;20.20;99.90;;;;;;5030641;28;20498;-33